GTI9945 KSLC-EHAM
Flight info
| Callsign | GTI9945 |
|---|---|
| Flight time | N/A |
| Altitude | 33000 |
| Route | RUGGD3 HOLTR DCT BPI DCT FETIK DCT JITIP DCT CZI DCT FAR DCT YQT DCT YSP DCT ANTUR DCT 50N082W 51N080W 55N070W DCT LAKES/M086F350 DCT URTAK DCT 59N050W 60N040W 5930N03000W 5830N02000W DCT GOMUP/N0492F350 DCT GINGA DCT TLA DCT ERKIT N110 DOLAS L603 LAMSO |
| Aircraft | B748/H-SDE3FGHIM1M2RWXY/LB1 |
Departure
| Time | 2026-05-05 23:42 |
|---|---|
| Airport | Salt Lake City International Airport (KSLC) |
Arrival
| Time | N/A |
|---|---|
| Airport | Amsterdam Airport Schiphol (EHAM) |
| Time | Latitude | Longitude | Altitude | Speed | Heading |
|---|---|---|---|---|---|
| 2026-05-05 23:36 | 40.79599 | -111.97784 | 4240 ft | 29 kts | 175° |
| 2026-05-05 23:36 | 40.79403 | -111.97761 | 4240 ft | 27 kts | 174° |
| 2026-05-05 23:36 | 40.79222 | -111.97738 | 4240 ft | 25 kts | 174° |
| 2026-05-05 23:36 | 40.79055 | -111.97721 | 4240 ft | 23 kts | 175° |
| 2026-05-05 23:37 | 40.78898 | -111.97704 | 4240 ft | 22 kts | 175° |
| 2026-05-05 23:37 | 40.78748 | -111.97687 | 4240 ft | 21 kts | 175° |
| 2026-05-05 23:37 | 40.78604 | -111.97671 | 4240 ft | 20 kts | 175° |
| 2026-05-05 23:37 | 40.78467 | -111.97655 | 4240 ft | 19 kts | 174° |
| 2026-05-05 23:38 | 40.78335 | -111.97637 | 4240 ft | 19 kts | 174° |
| 2026-05-05 23:38 | 40.78207 | -111.97623 | 4240 ft | 18 kts | 176° |
| 2026-05-05 23:38 | 40.78085 | -111.97611 | 4240 ft | 17 kts | 176° |
| 2026-05-05 23:38 | 40.77973 | -111.97584 | 4240 ft | 16 kts | 159° |
| 2026-05-05 23:39 | 40.77868 | -111.97546 | 4240 ft | 15 kts | 172° |
| 2026-05-05 23:39 | 40.77767 | -111.97530 | 4240 ft | 14 kts | 175° |
| 2026-05-05 23:39 | 40.77671 | -111.97520 | 4240 ft | 13 kts | 175° |
| 2026-05-05 23:39 | 40.77582 | -111.97510 | 4240 ft | 13 kts | 175° |
| 2026-05-05 23:40 | 40.77495 | -111.97500 | 4240 ft | 12 kts | 173° |
| 2026-05-05 23:40 | 40.77443 | -111.97453 | 4240 ft | 8 kts | 108° |
| 2026-05-05 23:40 | 40.77457 | -111.97380 | 4240 ft | 8 kts | 70° |
| 2026-05-05 23:40 | 40.77487 | -111.97323 | 4240 ft | 8 kts | 21° |
| 2026-05-05 23:41 | 40.77555 | -111.97323 | 4240 ft | 17 kts | 355° |
| 2026-05-05 23:41 | 40.77847 | -111.97353 | 4240 ft | 71 kts | 355° |
| 2026-05-05 23:41 | 40.78544 | -111.97436 | 4240 ft | 130 kts | 356° |
| 2026-05-05 23:41 | 40.79632 | -111.97560 | 4241 ft | 183 kts | 355° |
| 2026-05-05 23:42 | 40.81029 | -111.97723 | 4381 ft | 211 kts | 355° |
| 2026-05-05 23:42 | 40.82475 | -111.97915 | 5079 ft | 207 kts | 354° |
| 2026-05-05 23:42 | 40.83912 | -111.98154 | 5759 ft | 210 kts | 353° |
| 2026-05-05 23:42 | 40.85339 | -111.98405 | 6283 ft | 204 kts | 353° |
| 2026-05-05 23:43 | 40.86736 | -111.98635 | 6662 ft | 202 kts | 353° |